createdAt,value
2018-10-09T00:01:51.659Z,16.40
2018-10-09T00:04:26.130Z,18.33
2018-10-09T00:07:00.704Z,19.70
2018-10-09T00:09:35.195Z,19.43
2018-10-09T00:12:09.677Z,16.83
2018-10-09T00:14:44.704Z,17.00
2018-10-09T00:17:19.915Z,19.27
2018-10-09T00:19:55.033Z,17.23
2018-10-09T00:22:29.582Z,15.30
2018-10-09T00:25:04.039Z,19.03
2018-10-09T00:27:38.930Z,18.13
2018-10-09T00:30:14.012Z,16.80
2018-10-09T00:32:48.455Z,17.63
2018-10-09T00:35:23.343Z,18.07
2018-10-09T00:38:05.980Z,16.10
2018-10-09T00:40:40.666Z,18.17
2018-10-09T00:43:15.007Z,19.07
2018-10-09T00:45:49.814Z,15.47
2018-10-09T00:48:24.285Z,16.80
2018-10-09T00:50:58.639Z,17.17
2018-10-09T00:53:34.023Z,15.47
2018-10-09T00:56:24.430Z,15.53
2018-10-09T00:58:59.495Z,16.90
2018-10-09T01:01:34.399Z,19.23
2018-10-09T01:04:08.619Z,18.93
2018-10-09T01:06:43.115Z,16.67
2018-10-09T01:09:17.678Z,15.97
2018-10-09T01:11:52.194Z,18.27
2018-10-09T01:14:27.036Z,15.60
2018-10-09T01:17:02.084Z,15.50
2018-10-09T01:19:37.264Z,16.03
2018-10-09T01:22:12.419Z,17.20
2018-10-09T01:24:48.066Z,16.67
2018-10-09T01:27:23.048Z,15.17
2018-10-09T01:29:58.068Z,16.73
2018-10-09T01:32:33.103Z,17.77
2018-10-09T01:35:07.482Z,13.63
2018-10-09T01:37:42.719Z,18.30
2018-10-09T01:40:17.855Z,16.07
2018-10-09T01:42:52.386Z,14.80
2018-10-09T01:45:26.851Z,17.07
2018-10-09T01:48:01.179Z,18.00
2018-10-09T01:50:35.784Z,15.77
2018-10-09T01:53:11.295Z,18.20
2018-10-09T01:55:45.819Z,18.00
2018-10-09T01:58:20.946Z,15.50
2018-10-09T02:00:59.477Z,14.63
2018-10-09T02:03:33.783Z,16.50
2018-10-09T02:06:08.691Z,16.13
2018-10-09T02:08:43.396Z,15.40
2018-10-09T02:11:17.822Z,17.73
2018-10-09T02:13:52.739Z,17.30
2018-10-09T02:16:28.072Z,17.90
2018-10-09T02:19:03.023Z,14.97
2018-10-09T02:21:37.956Z,15.20
2018-10-09T02:24:12.429Z,17.20
2018-10-09T02:26:47.615Z,20.40
2018-10-09T02:29:22.767Z,17.43
2018-10-09T02:31:58.261Z,16.13
2018-10-09T02:34:32.828Z,19.57
2018-10-09T02:37:07.721Z,16.50
2018-10-09T02:39:42.803Z,14.27
2018-10-09T02:42:17.194Z,15.53
2018-10-09T02:44:51.504Z,19.27
2018-10-09T02:47:26.891Z,24.30
2018-10-09T02:50:01.400Z,16.90
2018-10-09T02:52:36.663Z,17.90
2018-10-09T02:55:11.890Z,17.93
2018-10-09T02:57:46.910Z,16.90
2018-10-09T03:00:21.440Z,15.17
2018-10-09T03:02:56.606Z,15.53
2018-10-09T03:05:31.103Z,17.50
2018-10-09T03:10:46.695Z,19.70
2018-10-09T03:13:21.823Z,15.60
2018-10-09T03:15:56.259Z,18.47
2018-10-09T03:18:39.148Z,19.43
2018-10-09T03:21:14.564Z,17.57
2018-10-09T03:23:49.060Z,16.80
2018-10-09T03:26:23.975Z,22.67
2018-10-09T03:28:58.915Z,22.83
2018-10-09T03:31:33.339Z,20.90
2018-10-09T03:34:08.858Z,17.53
2018-10-09T03:36:43.348Z,17.40
2018-10-09T03:39:18.318Z,23.23
2018-10-09T03:41:53.572Z,17.67
2018-10-09T03:44:27.975Z,17.00
2018-10-09T03:47:02.407Z,19.83
2018-10-09T03:49:37.503Z,16.90
2018-10-09T03:52:13.092Z,20.50
2018-10-09T03:54:47.534Z,17.60
2018-10-09T03:57:23.047Z,24.53
2018-10-09T03:59:57.583Z,20.47
2018-10-09T04:02:32.113Z,22.80
2018-10-09T04:05:07.227Z,24.97
2018-10-09T04:07:41.638Z,23.07
2018-10-09T04:10:15.995Z,26.17
2018-10-09T04:12:58.395Z,21.37
2018-10-09T04:15:33.408Z,25.70
2018-10-09T04:18:07.823Z,21.47
2018-10-09T04:20:43.029Z,31.57
2018-10-09T04:23:17.472Z,26.47
2018-10-09T04:25:52.355Z,36.23
2018-10-09T04:28:27.393Z,36.07
2018-10-09T04:31:01.689Z,32.30
2018-10-09T04:33:36.027Z,35.47
2018-10-09T04:36:11.207Z,29.07
2018-10-09T04:38:53.659Z,34.97
2018-10-09T04:41:28.348Z,32.60
2018-10-09T04:44:02.787Z,33.17
2018-10-09T04:46:38.069Z,33.97
2018-10-09T04:49:13.255Z,35.50
2018-10-09T04:51:52.080Z,35.23
2018-10-09T04:54:26.535Z,36.23
2018-10-09T04:57:01.660Z,34.30
2018-10-09T04:59:36.850Z,32.93
2018-10-09T05:02:11.343Z,36.23
2018-10-09T05:04:46.087Z,30.87
2018-10-09T05:07:21.462Z,29.57
2018-10-09T05:09:56.542Z,35.00
2018-10-09T05:12:32.191Z,33.83
2018-10-09T05:15:07.534Z,29.77
2018-10-09T05:17:42.065Z,26.03
2018-10-09T05:20:22.663Z,27.00
2018-10-09T05:22:56.915Z,23.47
2018-10-09T05:25:32.065Z,28.40
2018-10-09T05:28:07.165Z,26.07
2018-10-09T05:30:42.323Z,27.00
2018-10-09T05:33:16.673Z,25.57
2018-10-09T05:35:51.232Z,24.30
2018-10-09T05:38:26.636Z,38.80
2018-10-09T05:41:01.875Z,30.00
2018-10-09T05:43:37.119Z,24.67
2018-10-09T05:46:12.012Z,28.47
2018-10-09T05:48:47.427Z,28.17
2018-10-09T05:51:21.785Z,24.43
2018-10-09T05:53:56.846Z,35.40
2018-10-09T05:56:31.911Z,27.37
2018-10-09T05:59:06.889Z,23.20
2018-10-09T06:01:41.360Z,28.27
2018-10-09T06:04:15.892Z,22.73
2018-10-09T06:06:50.387Z,23.10
2018-10-09T06:09:25.080Z,21.97
2018-10-09T06:12:00.231Z,22.93
2018-10-09T06:14:35.623Z,24.33
2018-10-09T06:17:10.952Z,23.57
2018-10-09T06:19:46.651Z,26.13
2018-10-09T06:22:21.816Z,29.83
2018-10-09T06:24:56.148Z,30.97
2018-10-09T06:27:31.321Z,23.77
2018-10-09T06:30:06.069Z,26.27
2018-10-09T06:32:40.545Z,26.70
2018-10-09T06:35:15.398Z,25.70
2018-10-09T06:37:50.955Z,25.37
2018-10-09T06:40:29.578Z,26.43
2018-10-09T06:43:03.975Z,24.17
2018-10-09T06:45:38.991Z,29.40
2018-10-09T06:48:14.269Z,24.87
2018-10-09T06:50:48.664Z,27.77
2018-10-09T06:53:23.900Z,25.60
2018-10-09T06:55:59.555Z,30.37
2018-10-09T06:58:34.779Z,34.23
2018-10-09T07:01:09.264Z,28.97
2018-10-09T07:03:43.825Z,32.63
2018-10-09T07:06:18.864Z,29.30
2018-10-09T07:08:53.491Z,28.63
2018-10-09T07:11:28.499Z,33.70
2018-10-09T07:14:03.808Z,32.63
2018-10-09T07:16:39.190Z,33.60
2018-10-09T07:19:14.356Z,37.00
2018-10-09T07:21:49.325Z,34.37
2018-10-09T07:24:23.903Z,35.13
2018-10-09T07:26:58.807Z,33.10
2018-10-09T07:29:33.741Z,35.13
2018-10-09T07:32:08.915Z,34.17
2018-10-09T07:34:43.446Z,35.30
2018-10-09T07:37:18.167Z,28.70
2018-10-09T07:39:53.519Z,31.80
2018-10-09T07:42:36.435Z,28.57
2018-10-09T07:45:10.971Z,32.70
2018-10-09T07:47:53.040Z,29.20
2018-10-09T07:50:28.303Z,25.67
2018-10-09T07:53:03.660Z,31.40
2018-10-09T07:55:38.996Z,24.53
2018-10-09T07:58:13.849Z,22.73
2018-10-09T08:00:48.767Z,22.53
2018-10-09T08:03:23.088Z,21.77
2018-10-09T08:05:57.619Z,24.57
2018-10-09T08:08:32.024Z,26.53
2018-10-09T08:11:06.685Z,22.60
2018-10-09T08:13:42.100Z,21.70
2018-10-09T08:16:16.766Z,24.77
2018-10-09T08:18:51.933Z,23.40
2018-10-09T08:21:27.141Z,25.40
2018-10-09T08:24:02.264Z,23.27
2018-10-09T08:26:37.460Z,25.03
2018-10-09T08:29:11.938Z,22.60
2018-10-09T08:31:46.399Z,22.97
2018-10-09T08:34:20.887Z,21.90
2018-10-09T08:36:56.221Z,21.10
2018-10-09T08:39:31.319Z,23.80
2018-10-09T08:42:06.662Z,25.40
2018-10-09T08:44:41.661Z,21.10
2018-10-09T08:47:16.091Z,27.90
2018-10-09T08:49:50.920Z,27.27
2018-10-09T08:52:26.450Z,26.50
2018-10-09T08:55:01.489Z,23.10
2018-10-09T08:57:36.836Z,25.93
2018-10-09T09:00:11.333Z,27.67
2018-10-09T09:02:45.667Z,25.27
2018-10-09T09:05:20.359Z,25.53
2018-10-09T09:07:55.192Z,25.33
2018-10-09T09:10:30.364Z,24.43
2018-10-09T09:13:05.492Z,29.90
2018-10-09T09:15:40.834Z,28.80
2018-10-09T09:18:15.295Z,30.63
2018-10-09T09:20:50.632Z,31.53
2018-10-09T09:23:24.972Z,30.07
2018-10-09T09:26:00.437Z,32.27
2018-10-09T09:28:34.855Z,30.00
2018-10-09T09:31:09.400Z,32.20
2018-10-09T09:33:44.758Z,35.23
2018-10-09T09:36:19.287Z,30.57
2018-10-09T09:38:54.843Z,32.70
2018-10-09T09:41:29.380Z,35.00
2018-10-09T09:44:04.375Z,35.97
2018-10-09T09:46:39.078Z,33.73
2018-10-09T09:49:14.120Z,31.20
2018-10-09T09:52:04.061Z,32.70
2018-10-09T09:54:38.751Z,35.53
2018-10-09T09:57:20.524Z,35.30
2018-10-09T09:59:55.015Z,30.83
2018-10-09T10:02:29.432Z,34.20
2018-10-09T10:05:03.957Z,37.97
2018-10-09T10:07:38.374Z,36.63
2018-10-09T10:10:12.732Z,32.70
2018-10-09T10:12:47.200Z,32.50
2018-10-09T10:15:22.461Z,30.37
2018-10-09T10:17:56.875Z,31.13
2018-10-09T10:20:32.113Z,30.70
2018-10-09T10:23:07.174Z,30.37
2018-10-09T10:25:49.457Z,30.33
2018-10-09T10:28:24.367Z,30.43
2018-10-09T10:30:59.896Z,33.50
2018-10-09T10:33:34.276Z,29.10
2018-10-09T10:36:09.463Z,32.97
2018-10-09T10:38:44.530Z,30.83
2018-10-09T10:41:19.001Z,28.67
2018-10-09T10:43:53.364Z,32.60
2018-10-09T10:46:33.452Z,28.20
2018-10-09T10:49:12.890Z,29.50
2018-10-09T10:51:47.387Z,30.93
2018-10-09T10:54:22.891Z,31.70
2018-10-09T10:56:57.927Z,30.27
2018-10-09T10:59:33.272Z,32.20
2018-10-09T11:02:08.295Z,30.57
2018-10-09T11:04:42.833Z,29.17
2018-10-09T11:07:17.515Z,28.30
2018-10-09T11:09:51.959Z,32.53
2018-10-09T11:12:27.078Z,30.03
2018-10-09T11:15:02.113Z,29.87
2018-10-09T11:17:36.682Z,28.00
2018-10-09T11:20:12.326Z,31.27
2018-10-09T11:22:47.579Z,34.00
2018-10-09T11:25:22.034Z,28.50
2018-10-09T11:27:56.986Z,24.17
2018-10-09T11:30:32.091Z,28.77
2018-10-09T11:33:07.716Z,25.70
2018-10-09T11:35:42.218Z,23.67
2018-10-09T11:38:17.491Z,24.40
2018-10-09T11:40:51.904Z,23.53
2018-10-09T11:43:26.568Z,24.43
2018-10-09T11:46:00.947Z,23.27
2018-10-09T11:48:36.591Z,24.40
2018-10-09T11:51:10.970Z,26.97
2018-10-09T11:53:46.347Z,24.13
2018-10-09T11:56:21.514Z,22.23
2018-10-09T11:59:04.331Z,27.00
2018-10-09T12:01:38.799Z,20.07
2018-10-09T12:04:14.427Z,23.60
2018-10-09T12:06:50.601Z,21.40
2018-10-09T12:09:26.316Z,26.57
2018-10-09T12:12:00.840Z,27.07
2018-10-09T12:14:40.004Z,25.80
2018-10-09T12:17:14.687Z,18.83
2018-10-09T12:19:50.180Z,18.63
2018-10-09T12:22:26.340Z,17.47
2018-10-09T12:25:01.173Z,18.13
2018-10-09T12:27:36.586Z,15.90
2018-10-09T12:30:11.982Z,17.57
2018-10-09T12:32:47.326Z,19.30
2018-10-09T12:35:23.085Z,16.90
2018-10-09T12:37:59.233Z,16.63
2018-10-09T12:40:33.785Z,15.27
2018-10-09T12:43:08.355Z,19.53
2018-10-09T12:45:43.928Z,17.00
2018-10-09T12:48:19.233Z,18.57
2018-10-09T12:50:53.678Z,17.43
2018-10-09T12:53:29.269Z,16.67
2018-10-09T12:56:04.744Z,15.00
2018-10-09T12:58:40.561Z,16.13
2018-10-09T13:01:14.874Z,14.77
2018-10-09T13:03:50.330Z,13.60
2018-10-09T13:06:25.075Z,15.73
2018-10-09T13:09:00.241Z,13.37
2018-10-09T13:11:34.943Z,11.40
2018-10-09T13:16:55.080Z,13.53
2018-10-09T13:19:30.387Z,12.03
2018-10-09T13:22:05.041Z,14.60
2018-10-09T13:24:39.772Z,13.60
2018-10-09T13:27:14.895Z,14.00
2018-10-09T13:32:31.087Z,13.13
2018-10-09T13:35:05.673Z,12.70
2018-10-09T13:37:44.463Z,13.37
2018-10-09T13:40:19.433Z,12.73
2018-10-09T13:42:54.384Z,11.07
2018-10-09T13:45:29.009Z,12.23
2018-10-09T13:48:03.840Z,11.47
2018-10-09T13:50:38.462Z,12.07
2018-10-09T13:53:13.684Z,14.10
2018-10-09T13:55:48.970Z,10.80
2018-10-09T13:58:24.015Z,11.30
2018-10-09T14:00:58.669Z,12.40
2018-10-09T14:03:32.944Z,14.40
2018-10-09T14:06:07.824Z,13.87
2018-10-09T14:08:43.506Z,14.77
2018-10-09T14:11:18.172Z,14.50
2018-10-09T14:13:53.512Z,13.37
2018-10-09T14:16:28.568Z,13.10
2018-10-09T14:19:03.960Z,11.80
2018-10-09T14:21:38.735Z,11.20
2018-10-09T14:24:13.151Z,10.20
2018-10-09T14:26:49.109Z,9.73
2018-10-09T14:29:26.915Z,10.57
2018-10-09T14:32:03.430Z,10.00
2018-10-09T14:34:39.155Z,12.23
2018-10-09T14:37:13.857Z,10.70
2018-10-09T14:39:49.937Z,9.77
2018-10-09T14:42:25.404Z,9.63
2018-10-09T14:45:00.070Z,11.07
2018-10-09T14:47:35.348Z,10.30
2018-10-09T14:50:10.992Z,9.97
2018-10-09T14:52:46.092Z,10.23
2018-10-09T14:55:28.332Z,9.70
2018-10-09T14:58:03.354Z,11.13
2018-10-09T15:00:42.284Z,10.33
2018-10-09T15:03:16.617Z,9.13
2018-10-09T15:05:51.691Z,9.83
2018-10-09T15:08:26.140Z,9.03
2018-10-09T15:11:00.884Z,8.90
2018-10-09T15:13:36.549Z,9.50
2018-10-09T15:16:11.564Z,10.17
2018-10-09T15:18:46.633Z,8.90
2018-10-09T15:21:21.052Z,13.60
2018-10-09T15:23:57.046Z,9.43
2018-10-09T15:26:31.899Z,10.50
2018-10-09T15:29:06.377Z,9.33
2018-10-09T15:31:41.594Z,9.47
2018-10-09T15:34:15.911Z,12.50
2018-10-09T15:36:50.383Z,10.43
2018-10-09T15:39:25.360Z,11.87
2018-10-09T15:41:59.927Z,13.10
2018-10-09T15:44:34.857Z,10.97
2018-10-09T15:47:09.720Z,14.70
2018-10-09T15:49:44.526Z,13.40
2018-10-09T15:52:24.689Z,14.93
2018-10-09T15:54:59.286Z,12.17
2018-10-09T15:57:35.000Z,12.33
2018-10-09T16:00:09.535Z,14.13
2018-10-09T16:02:44.281Z,12.30
2018-10-09T16:05:19.346Z,15.57
2018-10-09T16:07:53.920Z,12.00
2018-10-09T16:10:28.474Z,12.53
2018-10-09T16:13:03.401Z,14.53
2018-10-09T16:15:38.644Z,12.87
2018-10-09T16:18:13.598Z,13.60
2018-10-09T16:20:48.634Z,13.00
2018-10-09T16:23:23.753Z,13.53
2018-10-09T16:25:58.975Z,13.03
2018-10-09T16:28:33.442Z,12.77
2018-10-09T16:31:08.968Z,12.13
2018-10-09T16:33:43.356Z,13.73
2018-10-09T16:36:17.949Z,12.70
2018-10-09T16:38:53.229Z,16.43
2018-10-09T16:41:28.496Z,13.67
2018-10-09T16:44:03.041Z,14.07
2018-10-09T16:46:37.770Z,13.77
2018-10-09T16:49:13.006Z,15.37
2018-10-09T16:51:47.690Z,13.63
2018-10-09T16:54:22.747Z,16.93
2018-10-09T16:56:57.726Z,15.03
2018-10-09T16:59:32.671Z,14.57
2018-10-09T17:02:07.739Z,15.80
2018-10-09T17:04:42.117Z,15.57
2018-10-09T17:07:16.717Z,17.33
2018-10-09T17:09:51.109Z,20.70
2018-10-09T17:12:26.503Z,26.77
2018-10-09T17:15:01.837Z,22.70
2018-10-09T17:17:36.805Z,17.73
2018-10-09T17:20:12.260Z,16.63
2018-10-09T17:22:46.874Z,15.43
2018-10-09T17:25:21.696Z,15.67
2018-10-09T17:27:56.924Z,19.17
2018-10-09T17:30:32.258Z,15.77
2018-10-09T17:33:07.498Z,18.17
2018-10-09T17:35:42.268Z,15.50
2018-10-09T17:38:17.765Z,17.30
2018-10-09T17:40:52.286Z,17.13
2018-10-09T17:43:27.919Z,19.70
2018-10-09T17:46:02.647Z,16.00
2018-10-09T17:48:38.503Z,18.27
2018-10-09T17:51:13.586Z,17.80
2018-10-09T17:53:48.801Z,17.80
2018-10-09T17:56:23.795Z,17.07
2018-10-09T17:58:59.203Z,17.77
2018-10-09T18:01:42.626Z,17.30
2018-10-09T18:04:17.103Z,17.60
2018-10-09T18:06:51.524Z,21.70
2018-10-09T18:09:26.744Z,17.67
2018-10-09T18:12:01.959Z,18.47
2018-10-09T18:14:37.044Z,17.10
2018-10-09T18:17:13.691Z,21.97
2018-10-09T18:19:49.233Z,19.80
2018-10-09T18:22:23.955Z,17.73
2018-10-09T18:24:58.595Z,19.47
2018-10-09T18:27:34.130Z,21.63
2018-10-09T18:30:10.546Z,15.90
2018-10-09T18:32:46.021Z,18.43
2018-10-09T18:35:20.503Z,17.33
2018-10-09T18:37:56.297Z,17.73
2018-10-09T18:40:33.226Z,21.40
2018-10-09T18:43:08.332Z,19.57
2018-10-09T18:45:43.687Z,18.23
2018-10-09T18:48:21.006Z,23.73
2018-10-09T18:50:56.763Z,18.50
2018-10-09T18:53:32.192Z,15.93
2018-10-09T18:56:07.211Z,17.03
2018-10-09T18:58:42.452Z,19.67
2018-10-09T19:01:17.032Z,18.60
2018-10-09T19:03:51.582Z,17.80
2018-10-09T19:06:25.991Z,16.50
2018-10-09T19:09:00.327Z,18.30
2018-10-09T19:11:35.220Z,19.60
2018-10-09T19:14:10.216Z,19.93
2018-10-09T19:16:44.965Z,19.20
2018-10-09T19:19:25.460Z,20.80
2018-10-09T19:21:59.786Z,16.87
2018-10-09T19:24:34.451Z,19.97
2018-10-09T19:27:09.587Z,21.30
2018-10-09T19:29:44.177Z,21.97
2018-10-09T19:32:19.414Z,18.63
2018-10-09T19:34:54.544Z,17.27
2018-10-09T19:37:29.849Z,23.97
